M/V Crosby Hustler — WDA3941 — position and weather

sailwx.info

Track history (hours):
 
Tides and Currents Weather Stations Pressure Air Temp Water Temp Dewpoint Dewpoint Depression Visibility Wind Speed Wind Dir Waves Ship Positions

M/V Crosby Hustler

Owner: CROSBY INLAND MARINE LLC, GOLDEN MEADOW, LA. More information available from US FCC via Universal Licensing System and Coast Guard Vessel Documentation Center.

Last reported at 2014-Dec-19 01:31 UTC. Time now 2014-Dec-19 12:16 UTC.
Position N 29°47' W 095°06'.

Length 18 m; draft 9 m.

Type: Tug. MMSI: 366804030.

Date/timePositionNaut miles runAvg speedWind from/ knotsBaromVisibWave heightAir tempDewpointWater temp
2014-Dec-19 01:31N 29°47' W 095°06'0 0.0
2014-Dec-19 00:31N 29°47' W 095°06'0 0.0
2014-Dec-18 17:26N 29°47' W 095°06'0 0.0
2014-Dec-18 16:32N 29°47' W 095°06'0 0.0
2014-Dec-18 15:32N 29°47' W 095°06'0 0.0
2014-Dec-18 14:32N 29°47' W 095°06'0 0.0
2014-Dec-18 09:05N 29°47' W 095°06'0 0.0
2014-Dec-18 01:29N 29°47' W 095°06'0 0.0
2014-Dec-18 00:14N 29°47' W 095°06'0 0.0
2014-Dec-17 23:20N 29°47' W 095°06'0 0.0
2014-Dec-17 22:32N 29°47' W 095°06'0 0.0
2014-Dec-17 21:29N 29°47' W 095°06'0 0.0
2014-Dec-17 20:29N 29°47' W 095°06'0 0.0
2014-Dec-17 19:23N 29°47' W 095°06'0 0.0
2014-Dec-17 18:17N 29°47' W 095°06'0 0.0
2014-Dec-17 17:05N 29°47' W 095°06'1 1.0
2014-Dec-17 16:33N 29°46' W 095°06'1 0.6
2014-Dec-17 15:33N 29°47' W 095°06'1 0.7
2014-Dec-17 14:33N 29°46' W 095°06'4 3.9
2014-Dec-17 13:33N 29°44' W 095°02'4 3.9
2014-Dec-17 12:33N 29°41' W 094°59'5 5.0
2014-Dec-17 11:31N 29°36' W 094°57'5 5.1
2014-Dec-17 10:33N 29°32' W 094°54'5 4.8
2014-Dec-17 09:33N 29°28' W 094°51'  
2014-Dec-10 14:29N 29°09' W 095°09'5 5.0
2014-Dec-10 13:31N 29°11' W 095°05'9 1.1
2014-Dec-10 05:32N 29°17' W 094°57'10 3.5
2014-Dec-10 02:33N 29°25' W 094°50'5 4.8
2014-Dec-10 01:33N 29°29' W 094°52'5 5.2
2014-Dec-10 00:33N 29°34' W 094°55'6 5.7
2014-Dec-09 23:33N 29°39' W 094°58'6 5.5
2014-Dec-09 22:33N 29°43' W 095°01'4 4.4
2014-Dec-09 21:34N 29°47' W 095°04'0 0.4
2014-Dec-09 20:28N 29°48' W 095°04'0 0.0
2014-Dec-09 19:31N 29°48' W 095°04'0 0.0
2014-Dec-09 18:31N 29°48' W 095°04'0 0.0
2014-Dec-09 17:31N 29°48' W 095°04'0 0.0
2014-Dec-09 16:33N 29°48' W 095°04'2 2.2
2014-Dec-09 15:33N 29°47' W 095°06'0 0.0
2014-Dec-09 14:33N 29°47' W 095°06'0 0.0
2014-Dec-09 13:33N 29°47' W 095°06'0 0.0
2014-Dec-09 12:33N 29°47' W 095°06'0 0.0
2014-Dec-09 11:33N 29°47' W 095°06'0 0.0
2014-Dec-09 10:33N 29°47' W 095°06'0 0.0
2014-Dec-09 09:33N 29°47' W 095°06'0 0.0
2014-Dec-09 08:30N 29°47' W 095°06'0 0.0
2014-Dec-09 07:33N 29°47' W 095°06'0 0.0
2014-Dec-09 06:30N 29°47' W 095°06'0 0.0
2014-Dec-09 05:33N 29°47' W 095°06'0 0.0
2014-Dec-09 04:33N 29°47' W 095°06'0 0.0
2014-Dec-09 03:33N 29°47' W 095°06'0 0.0
2014-Dec-09 02:33N 29°47' W 095°06'0 0.0
2014-Dec-09 01:33N 29°47' W 095°06'  
Track history (hours):
 
Tides and Currents Weather Stations Pressure Air Temp Water Temp Dewpoint Dewpoint Depression Visibility Wind Speed Wind Dir Waves Ship Positions

M/V Crosby Hustler

Owner: CROSBY INLAND MARINE LLC, GOLDEN MEADOW, LA. More information available from US FCC via Universal Licensing System and Coast Guard Vessel Documentation Center.

Last reported at 2014-Dec-19 01:31 UTC. Time now 2014-Dec-19 12:16 UTC.
Position N 29°47' W 095°06'.

Length 18 m; draft 9 m.

Type: Tug. MMSI: 366804030.

Date/timePositionNaut miles runAvg speedWind from/ knotsBaromVisibWave heightAir tempDewpointWater temp
2014-Dec-19 01:31N 29°47' W 095°06'0 0.0
2014-Dec-19 00:31N 29°47' W 095°06'0 0.0
2014-Dec-18 17:26N 29°47' W 095°06'0 0.0
2014-Dec-18 16:32N 29°47' W 095°06'0 0.0
2014-Dec-18 15:32N 29°47' W 095°06'0 0.0
2014-Dec-18 14:32N 29°47' W 095°06'0 0.0
2014-Dec-18 09:05N 29°47' W 095°06'0 0.0
2014-Dec-18 01:29N 29°47' W 095°06'0 0.0
2014-Dec-18 00:14N 29°47' W 095°06'0 0.0
2014-Dec-17 23:20N 29°47' W 095°06'0 0.0
2014-Dec-17 22:32N 29°47' W 095°06'0 0.0
2014-Dec-17 21:29N 29°47' W 095°06'0 0.0
2014-Dec-17 20:29N 29°47' W 095°06'0 0.0
2014-Dec-17 19:23N 29°47' W 095°06'0 0.0
2014-Dec-17 18:17N 29°47' W 095°06'0 0.0
2014-Dec-17 17:05N 29°47' W 095°06'1 1.0
2014-Dec-17 16:33N 29°46' W 095°06'1 0.6
2014-Dec-17 15:33N 29°47' W 095°06'1 0.7
2014-Dec-17 14:33N 29°46' W 095°06'4 3.9
2014-Dec-17 13:33N 29°44' W 095°02'4 3.9
2014-Dec-17 12:33N 29°41' W 094°59'5 5.0
2014-Dec-17 11:31N 29°36' W 094°57'5 5.1
2014-Dec-17 10:33N 29°32' W 094°54'5 4.8
2014-Dec-17 09:33N 29°28' W 094°51'  
2014-Dec-10 14:29N 29°09' W 095°09'5 5.0
2014-Dec-10 13:31N 29°11' W 095°05'9 1.1
2014-Dec-10 05:32N 29°17' W 094°57'10 3.5
2014-Dec-10 02:33N 29°25' W 094°50'5 4.8
2014-Dec-10 01:33N 29°29' W 094°52'5 5.2
2014-Dec-10 00:33N 29°34' W 094°55'6 5.7
2014-Dec-09 23:33N 29°39' W 094°58'6 5.5
2014-Dec-09 22:33N 29°43' W 095°01'4 4.4
2014-Dec-09 21:34N 29°47' W 095°04'0 0.4
2014-Dec-09 20:28N 29°48' W 095°04'0 0.0
2014-Dec-09 19:31N 29°48' W 095°04'0 0.0
2014-Dec-09 18:31N 29°48' W 095°04'0 0.0
2014-Dec-09 17:31N 29°48' W 095°04'0 0.0
2014-Dec-09 16:33N 29°48' W 095°04'2 2.2
2014-Dec-09 15:33N 29°47' W 095°06'0 0.0
2014-Dec-09 14:33N 29°47' W 095°06'0 0.0
2014-Dec-09 13:33N 29°47' W 095°06'0 0.0
2014-Dec-09 12:33N 29°47' W 095°06'0 0.0
2014-Dec-09 11:33N 29°47' W 095°06'0 0.0
2014-Dec-09 10:33N 29°47' W 095°06'0 0.0
2014-Dec-09 09:33N 29°47' W 095°06'0 0.0
2014-Dec-09 08:30N 29°47' W 095°06'0 0.0
2014-Dec-09 07:33N 29°47' W 095°06'0 0.0
2014-Dec-09 06:30N 29°47' W 095°06'0 0.0
2014-Dec-09 05:33N 29°47' W 095°06'0 0.0
2014-Dec-09 04:33N 29°47' W 095°06'0 0.0
2014-Dec-09 03:33N 29°47' W 095°06'0 0.0
2014-Dec-09 02:33N 29°47' W 095°06'0 0.0
2014-Dec-09 01:33N 29°47' W 095°06'  

Dump ship's entire track history